createdAt,value
2022-11-19T00:01:50.997Z,0.80
2022-11-19T00:05:14.697Z,0.90
2022-11-19T00:08:39.142Z,0.90
2022-11-19T00:12:20.159Z,0.90
2022-11-19T00:15:43.955Z,1.00
2022-11-19T00:19:10.547Z,0.90
2022-11-19T00:22:34.194Z,0.90
2022-11-19T00:26:04.655Z,0.80
2022-11-19T00:29:28.882Z,0.90
2022-11-19T00:32:52.722Z,0.90
2022-11-19T00:36:18.688Z,0.90
2022-11-19T00:39:42.867Z,0.90
2022-11-19T00:43:24.049Z,0.90
2022-11-19T00:46:47.834Z,0.80
2022-11-19T00:50:11.513Z,0.70
2022-11-19T00:53:37.173Z,0.80
2022-11-19T00:57:01.230Z,0.90
2022-11-19T01:00:24.987Z,0.70
2022-11-19T01:03:49.015Z,0.70
2022-11-19T01:07:12.933Z,0.70
2022-11-19T01:10:38.249Z,0.60
2022-11-19T01:14:02.641Z,0.70
2022-11-19T01:17:26.329Z,0.70
2022-11-19T01:20:50.163Z,0.70
2022-11-19T01:24:13.899Z,0.70
2022-11-19T01:27:39.020Z,0.70
2022-11-19T01:31:08.460Z,0.70
2022-11-19T01:34:32.306Z,0.60
2022-11-19T01:37:56.702Z,0.60
2022-11-19T01:41:21.917Z,0.70
2022-11-19T01:45:01.317Z,0.70
2022-11-19T01:48:27.468Z,0.60
2022-11-19T01:51:58.113Z,0.60
2022-11-19T01:55:22.630Z,0.70
2022-11-19T01:58:52.547Z,0.70
2022-11-19T02:02:22.576Z,0.70
2022-11-19T02:05:47.393Z,0.70
2022-11-19T02:09:11.168Z,0.60
2022-11-19T02:12:44.096Z,0.70
2022-11-19T02:16:12.566Z,0.70
2022-11-19T02:20:11.571Z,0.60
2022-11-19T02:24:02.618Z,0.60
2022-11-19T02:28:00.533Z,0.60
2022-11-19T02:31:29.346Z,0.50
2022-11-19T02:34:56.928Z,0.60
2022-11-19T02:38:29.988Z,0.50
2022-11-19T02:41:57.824Z,0.50
2022-11-19T02:45:27.341Z,0.50
2022-11-19T02:48:53.625Z,0.40
2022-11-19T02:52:18.766Z,0.50
2022-11-19T02:56:02.694Z,0.50
2022-11-19T02:59:50.163Z,0.40
2022-11-19T03:03:34.188Z,0.40
2022-11-19T03:07:02.319Z,0.40
2022-11-19T03:10:32.940Z,0.30
2022-11-19T03:14:17.736Z,0.30
2022-11-19T03:18:02.348Z,0.30
2022-11-19T03:21:31.346Z,0.30
2022-11-19T03:25:02.978Z,0.30
2022-11-19T03:28:31.504Z,0.20
2022-11-19T03:32:00.333Z,0.30
2022-11-19T03:35:35.653Z,0.20
2022-11-19T03:39:04.203Z,0.10
2022-11-19T03:42:30.679Z,0.10
2022-11-19T03:45:57.555Z,0.00
2022-11-19T03:49:29.093Z,-0.10
2022-11-19T03:52:53.185Z,-0.20
2022-11-19T03:56:22.905Z,-0.20
2022-11-19T03:59:48.830Z,-0.20
2022-11-19T04:03:12.649Z,-0.20
2022-11-19T04:06:37.009Z,-0.30
2022-11-19T04:10:01.305Z,-0.40
2022-11-19T04:13:25.110Z,-0.40
2022-11-19T04:16:50.418Z,-0.40
2022-11-19T04:20:14.340Z,-0.40
2022-11-19T04:23:38.134Z,-0.40
2022-11-19T04:27:01.983Z,-0.50
2022-11-19T04:30:25.729Z,-0.50
2022-11-19T04:33:50.859Z,-0.50
2022-11-19T04:37:14.606Z,-0.50
2022-11-19T04:40:39.098Z,-0.50
2022-11-19T04:44:03.315Z,-0.60
2022-11-19T04:47:27.033Z,-0.60
2022-11-19T04:50:52.175Z,-0.60
2022-11-19T04:54:15.911Z,-0.70
2022-11-19T04:57:39.636Z,-0.80
2022-11-19T05:01:03.936Z,-0.90
2022-11-19T05:04:27.783Z,-1.00
2022-11-19T05:07:52.965Z,-0.90
2022-11-19T05:11:16.760Z,-0.90
2022-11-19T05:14:40.716Z,-0.90
2022-11-19T05:18:04.601Z,-1.00
2022-11-19T05:21:28.475Z,-0.90
2022-11-19T05:24:53.629Z,-1.00
2022-11-19T05:28:17.354Z,-1.00
2022-11-19T05:31:41.098Z,-1.10
2022-11-19T05:35:04.991Z,-1.10
2022-11-19T05:38:28.744Z,-1.10
2022-11-19T05:41:53.710Z,-1.10
2022-11-19T05:45:17.603Z,-1.20
2022-11-19T05:48:41.416Z,-1.20
2022-11-19T05:52:05.544Z,-1.20
2022-11-19T05:55:29.324Z,-1.20
2022-11-19T05:58:54.450Z,-1.30
2022-11-19T06:02:18.221Z,-1.30
2022-11-19T06:05:41.948Z,-1.40
2022-11-19T06:09:05.917Z,-1.40
2022-11-19T06:12:29.565Z,-1.40
2022-11-19T06:15:54.635Z,-1.40
2022-11-19T06:19:18.699Z,-1.40
2022-11-19T06:22:42.688Z,-1.50
2022-11-19T06:26:08.798Z,-1.50
2022-11-19T06:29:32.644Z,-1.50
2022-11-19T06:32:57.825Z,-1.60
2022-11-19T06:36:21.801Z,-1.60
2022-11-19T06:39:45.487Z,-1.60
2022-11-19T06:43:09.291Z,-1.70
2022-11-19T06:46:33.032Z,-1.70
2022-11-19T06:49:58.171Z,-1.70
2022-11-19T06:53:21.888Z,-1.70
2022-11-19T06:56:45.661Z,-1.70
2022-11-19T07:00:10.820Z,-1.70
2022-11-19T07:03:35.667Z,-1.70
2022-11-19T07:07:01.025Z,-1.70
2022-11-19T07:10:24.868Z,-1.70
2022-11-19T07:14:00.639Z,-1.60
2022-11-19T07:17:24.344Z,-1.70
2022-11-19T07:20:48.090Z,-1.60
2022-11-19T07:24:13.283Z,-1.60
2022-11-19T07:27:37.029Z,-1.60
2022-11-19T07:31:00.725Z,-1.50
2022-11-19T07:34:24.635Z,-1.50
2022-11-19T07:37:48.447Z,-1.70
2022-11-19T07:41:27.755Z,-1.60
2022-11-19T07:44:54.749Z,-1.60
2022-11-19T07:48:19.091Z,-1.50
2022-11-19T07:51:43.560Z,-1.40
2022-11-19T07:55:08.266Z,-1.40
2022-11-19T07:58:33.646Z,-0.70
2022-11-19T08:01:57.415Z,1.40
2022-11-19T08:05:20.985Z,2.90
2022-11-19T08:08:45.552Z,4.10
2022-11-19T08:12:09.319Z,4.00
2022-11-19T08:15:35.452Z,4.30
2022-11-19T08:18:59.061Z,5.30
2022-11-19T08:22:22.796Z,6.30
2022-11-19T08:25:47.011Z,6.50
2022-11-19T08:29:15.979Z,6.00
2022-11-19T08:32:41.654Z,6.60
2022-11-19T08:36:05.982Z,7.50
2022-11-19T08:39:29.695Z,7.10
2022-11-19T08:43:02.236Z,7.40
2022-11-19T08:46:25.946Z,5.90
2022-11-19T08:49:50.856Z,6.20
2022-11-19T08:53:14.553Z,6.50
2022-11-19T08:56:38.674Z,5.40
2022-11-19T09:00:06.426Z,3.80
2022-11-19T09:03:30.753Z,3.30
2022-11-19T09:06:56.688Z,3.40
2022-11-19T09:10:20.481Z,4.20
2022-11-19T09:13:44.583Z,4.50
2022-11-19T09:17:08.268Z,4.80
2022-11-19T09:20:31.874Z,4.40
2022-11-19T09:23:57.000Z,4.20
2022-11-19T09:27:20.832Z,3.50
2022-11-19T09:30:44.506Z,3.20
2022-11-19T09:34:08.196Z,3.00
2022-11-19T09:37:34.073Z,2.40
2022-11-19T09:41:12.012Z,3.00
2022-11-19T09:44:58.317Z,2.90
2022-11-19T09:48:32.451Z,3.30
2022-11-19T09:52:04.814Z,4.20
2022-11-19T09:55:33.812Z,4.70
2022-11-19T09:59:00.008Z,6.20
2022-11-19T10:02:24.328Z,5.40
2022-11-19T10:06:00.408Z,6.30
2022-11-19T10:09:40.220Z,6.60
2022-11-19T10:13:20.878Z,6.30
2022-11-19T10:16:58.112Z,6.70
2022-11-19T10:20:35.273Z,6.00
2022-11-19T10:24:09.324Z,6.00
2022-11-19T10:27:41.614Z,6.50
2022-11-19T10:31:09.018Z,6.60
2022-11-19T10:34:37.464Z,5.70
2022-11-19T10:38:04.855Z,6.10
2022-11-19T10:41:35.015Z,5.60
2022-11-19T10:45:02.963Z,4.70
2022-11-19T10:48:37.497Z,4.00
2022-11-19T10:52:02.772Z,4.00
2022-11-19T10:55:30.034Z,3.40
2022-11-19T10:58:58.528Z,3.10
2022-11-19T11:02:32.677Z,3.00
2022-11-19T11:05:59.353Z,2.60
2022-11-19T11:09:32.926Z,2.60
2022-11-19T11:13:31.259Z,2.20
2022-11-19T11:16:55.004Z,2.00
2022-11-19T11:20:27.061Z,1.90
2022-11-19T11:23:54.025Z,2.00
2022-11-19T11:27:25.632Z,2.10
2022-11-19T11:30:58.175Z,1.70
2022-11-19T11:34:34.255Z,1.70
2022-11-19T11:37:58.594Z,1.90
2022-11-19T11:45:23.203Z,2.10
2022-11-19T11:48:49.815Z,2.10
2022-11-19T11:52:20.986Z,2.00
2022-11-19T11:55:45.025Z,1.90
2022-11-19T11:59:17.644Z,1.90
2022-11-19T12:02:59.844Z,1.90
2022-11-19T12:06:26.204Z,1.70
2022-11-19T12:09:59.285Z,1.70
2022-11-19T12:13:50.395Z,1.70
2022-11-19T12:17:33.391Z,1.80
2022-11-19T12:21:06.251Z,1.70
2022-11-19T12:24:49.323Z,1.60
2022-11-19T12:28:27.675Z,1.70
2022-11-19T12:32:07.194Z,1.80
2022-11-19T12:35:44.529Z,1.90
2022-11-19T12:39:20.164Z,2.00
2022-11-19T12:42:54.508Z,2.20
2022-11-19T12:46:24.314Z,2.30
2022-11-19T12:50:04.055Z,2.20
2022-11-19T12:53:53.860Z,2.40
2022-11-19T12:57:33.634Z,2.00
2022-11-19T13:01:01.675Z,2.00
2022-11-19T13:04:33.401Z,2.10
2022-11-19T13:08:02.712Z,2.10
2022-11-19T13:11:36.332Z,2.10
2022-11-19T13:15:05.448Z,2.20
2022-11-19T13:18:33.716Z,2.40
2022-11-19T13:22:01.668Z,2.30
2022-11-19T13:25:28.536Z,2.20
2022-11-19T13:28:55.926Z,2.30
2022-11-19T13:32:26.662Z,2.40
2022-11-19T13:35:58.244Z,2.40
2022-11-19T13:39:30.014Z,2.40
2022-11-19T13:46:59.511Z,2.30
2022-11-19T13:50:29.900Z,2.20
2022-11-19T13:54:02.391Z,2.30
2022-11-19T13:57:32.012Z,2.40
2022-11-19T14:01:11.798Z,2.40
2022-11-19T14:04:50.946Z,2.40
2022-11-19T14:08:29.337Z,2.40
2022-11-19T14:12:09.636Z,2.40
2022-11-19T14:16:12.372Z,2.30
2022-11-19T14:20:06.820Z,2.40
2022-11-19T14:24:16.936Z,2.40
2022-11-19T14:27:40.954Z,2.30
2022-11-19T14:31:05.679Z,2.20
2022-11-19T14:34:31.350Z,2.10
2022-11-19T14:37:58.811Z,2.10
2022-11-19T14:41:32.873Z,2.10
2022-11-19T14:45:21.542Z,2.20
2022-11-19T14:48:52.645Z,2.20
2022-11-19T14:52:22.067Z,2.20
2022-11-19T14:55:54.958Z,2.10
2022-11-19T14:59:23.001Z,2.00
2022-11-19T15:02:50.256Z,2.00
2022-11-19T15:06:19.525Z,2.00
2022-11-19T15:10:02.990Z,1.90
2022-11-19T15:13:28.097Z,1.80
2022-11-19T15:16:53.592Z,1.80
2022-11-19T15:20:29.811Z,1.80
2022-11-19T15:24:05.739Z,1.70
2022-11-19T15:27:42.742Z,1.70
2022-11-19T15:31:21.607Z,1.60
2022-11-19T15:35:15.694Z,1.50
2022-11-19T15:38:43.318Z,1.50
2022-11-19T15:42:13.842Z,1.50
2022-11-19T15:45:43.759Z,1.40
2022-11-19T15:49:14.349Z,1.30
2022-11-19T15:52:39.484Z,1.20
2022-11-19T15:56:05.824Z,1.20
2022-11-19T15:59:31.621Z,1.10
2022-11-19T16:02:55.477Z,1.10
2022-11-19T16:06:22.061Z,1.00
2022-11-19T16:09:54.539Z,1.00
2022-11-19T16:13:41.036Z,0.90
2022-11-19T16:17:29.465Z,0.90
2022-11-19T16:20:53.848Z,0.90
2022-11-19T16:24:37.950Z,0.80
2022-11-19T16:28:06.035Z,0.70
2022-11-19T16:31:31.850Z,0.70
2022-11-19T16:35:11.106Z,0.70
2022-11-19T16:38:34.727Z,0.70
2022-11-19T16:42:19.222Z,0.60
2022-11-19T16:45:47.440Z,0.60
2022-11-19T16:49:29.575Z,0.60
2022-11-19T16:52:53.261Z,0.60
2022-11-19T16:56:17.200Z,0.60
2022-11-19T16:59:41.369Z,0.50
2022-11-19T17:03:29.857Z,0.50
2022-11-19T17:06:53.575Z,0.50
2022-11-19T17:10:30.443Z,0.40
2022-11-19T17:13:54.211Z,0.40
2022-11-19T17:17:40.429Z,0.30
2022-11-19T17:21:08.826Z,0.30
2022-11-19T17:24:35.238Z,0.30
2022-11-19T17:28:01.310Z,0.30
2022-11-19T17:31:26.866Z,0.20
2022-11-19T17:34:55.146Z,0.20
2022-11-19T17:38:23.792Z,0.20
2022-11-19T17:42:05.948Z,0.20
2022-11-19T17:45:29.570Z,0.20
2022-11-19T17:48:53.775Z,0.10
2022-11-19T17:52:22.545Z,0.10
2022-11-19T17:55:49.359Z,0.00
2022-11-19T17:59:12.992Z,0.00
2022-11-19T18:02:36.652Z,0.00
2022-11-19T18:06:02.309Z,0.00
2022-11-19T18:09:26.864Z,0.00
2022-11-19T18:12:53.808Z,0.00
2022-11-19T18:16:19.727Z,-0.10
2022-11-19T18:19:43.689Z,-0.10
2022-11-19T18:23:07.440Z,-0.20
2022-11-19T18:26:31.060Z,-0.20
2022-11-19T18:29:56.008Z,-0.20
2022-11-19T18:33:20.963Z,-0.20
2022-11-19T18:36:44.857Z,-0.20
2022-11-19T18:40:09.634Z,-0.30
2022-11-19T18:43:50.808Z,-0.30
2022-11-19T18:47:16.355Z,-0.30
2022-11-19T18:50:39.916Z,-0.30
2022-11-19T18:54:03.567Z,-0.30
2022-11-19T18:57:27.269Z,-0.30
2022-11-19T19:00:50.934Z,-0.40
2022-11-19T19:04:16.272Z,-0.40
2022-11-19T19:07:40.000Z,-0.50
2022-11-19T19:11:24.475Z,-0.50
2022-11-19T19:14:51.520Z,-0.50
2022-11-19T19:18:15.336Z,-0.60
2022-11-19T19:21:40.559Z,-0.60
2022-11-19T19:25:05.107Z,-0.60
2022-11-19T19:28:28.670Z,-0.60
2022-11-19T19:31:52.390Z,-0.70
2022-11-19T19:35:16.184Z,-0.70
2022-11-19T19:38:41.636Z,-0.80
2022-11-19T19:42:05.455Z,-0.70
2022-11-19T19:45:29.221Z,-0.70
2022-11-19T19:48:55.315Z,-0.70
2022-11-19T19:52:18.909Z,-0.80
2022-11-19T19:55:43.939Z,-0.80
2022-11-19T19:59:07.789Z,-0.80
2022-11-19T20:02:31.466Z,-0.90
2022-11-19T20:05:55.179Z,-0.90
2022-11-19T20:09:18.907Z,-0.90
2022-11-19T20:13:01.370Z,-1.00
2022-11-19T20:16:26.979Z,-1.10
2022-11-19T20:19:50.670Z,-1.20
2022-11-19T20:23:14.469Z,-1.10
2022-11-19T20:26:38.432Z,-1.10
2022-11-19T20:30:05.683Z,-1.10
2022-11-19T20:33:29.658Z,-1.00
2022-11-19T20:36:53.739Z,-1.10
2022-11-19T20:40:17.503Z,-1.10
2022-11-19T20:43:58.666Z,-1.20
2022-11-19T20:47:23.662Z,-1.20
2022-11-19T20:50:47.272Z,-1.20
2022-11-19T20:54:10.968Z,-1.20
2022-11-19T20:57:34.701Z,-1.20
2022-11-19T21:01:02.927Z,-1.20
2022-11-19T21:04:31.274Z,-1.30
2022-11-19T21:07:55.224Z,-1.40
2022-11-19T21:11:19.273Z,-1.40
2022-11-19T21:14:43.171Z,-1.30
2022-11-19T21:18:06.779Z,-1.30
2022-11-19T21:21:31.775Z,-1.30
2022-11-19T21:24:55.452Z,-1.40
2022-11-19T21:28:19.379Z,-1.50
2022-11-19T21:31:45.434Z,-1.50
2022-11-19T21:35:10.303Z,-1.60
2022-11-19T21:38:35.838Z,-1.60
2022-11-19T21:41:59.521Z,-1.50
2022-11-19T21:45:24.030Z,-1.50
2022-11-19T21:48:47.649Z,-1.50
2022-11-19T21:52:13.283Z,-1.50
2022-11-19T21:55:38.446Z,-1.50
2022-11-19T21:59:02.261Z,-1.50
2022-11-19T22:02:25.996Z,-1.60
2022-11-19T22:05:59.595Z,-1.60
2022-11-19T22:09:23.277Z,-1.60
2022-11-19T22:12:48.382Z,-1.70
2022-11-19T22:16:12.101Z,-1.70
2022-11-19T22:19:35.916Z,-1.70
2022-11-19T22:22:59.677Z,-1.70
2022-11-19T22:26:23.364Z,-1.80
2022-11-19T22:29:48.343Z,-1.80
2022-11-19T22:33:12.173Z,-1.90
2022-11-19T22:36:35.873Z,-1.90
2022-11-19T22:39:59.459Z,-1.90
2022-11-19T22:43:23.251Z,-1.90
2022-11-19T22:46:48.309Z,-1.90
2022-11-19T22:50:11.981Z,-2.00
2022-11-19T22:53:36.208Z,-1.90
2022-11-19T22:57:00.004Z,-2.00
2022-11-19T23:00:39.832Z,-2.00
2022-11-19T23:04:07.080Z,-2.00
2022-11-19T23:07:30.943Z,-2.00
2022-11-19T23:10:59.327Z,-2.10
2022-11-19T23:14:21.987Z,-2.10
2022-11-19T23:17:45.728Z,-2.10
2022-11-19T23:21:12.571Z,-2.10
2022-11-19T23:24:36.275Z,-2.10
2022-11-19T23:28:00.077Z,-2.10
2022-11-19T23:31:25.767Z,-2.10
2022-11-19T23:34:50.302Z,-2.10
2022-11-19T23:38:15.774Z,-2.20
2022-11-19T23:41:40.280Z,-2.20
2022-11-19T23:45:04.629Z,-2.10
2022-11-19T23:48:28.234Z,-2.10
2022-11-19T23:51:51.840Z,-2.20
2022-11-19T23:55:18.884Z,-2.20
2022-11-19T23:58:43.208Z,-2.20
